Time;durP1;ratioP1;P1;durP2;ratioP2;P2;SDS_P1;SDS_P2;PMS_P1;PMS_P2;Temp;Humidity;BMP_temperature;BMP_pressure;BME280_temperature;BME280_humidity;BME280_pressure;Samples;Min_cycle;Max_cycle;Signal;HPM_P1;HPM_P2
2024/03/12 00:01:39;;;;;;;69.88;30.35;;;;;;;-146.27;93.96;43968.47;5100241;28;20468;-77
2024/03/12 00:04:10;;;;;;;73.55;31.48;;;;;;;-146.27;93.77;43986.38;5111280;28;20024;-76
2024/03/12 00:06:36;;;;;;;88.22;30.15;;;;;;;-146.27;94.08;43982.38;5110391;28;20031;-77
2024/03/12 00:09:06;;;;;;;84.97;31.52;;;;;;;-146.27;93.87;43972.44;5101177;28;20186;-78
2024/03/12 00:11:32;;;;;;;80.78;31.63;;;;;;;-146.27;93.68;43964.50;5088113;28;20115;-78
2024/03/12 00:13:57;;;;;;;73.18;31.17;;;;;;;-146.27;94.05;43968.47;5095877;28;20541;-75
2024/03/12 00:16:23;;;;;;;93.25;29.83;;;;;;;-146.27;93.88;44004.28;5091270;28;20044;-72
2024/03/12 00:18:52;;;;;;;93.90;28.45;;;;;;;-146.27;93.61;43950.56;5091627;28;20160;-72
2024/03/12 00:21:18;;;;;;;81.88;30.23;;;;;;;-146.27;94.05;43982.38;5091474;28;20062;-73
2024/03/12 00:23:46;;;;;;;82.28;29.98;;;;;;;-146.27;93.46;43956.53;5091237;28;20074;-72
2024/03/12 00:26:13;;;;;;;84.63;30.95;;;;;;;-146.27;93.48;43958.53;5091568;28;20047;-71
2024/03/12 00:28:38;;;;;;;86.57;30.58;;;;;;;-146.27;93.32;43982.38;5090905;28;20028;-71
2024/03/12 00:31:05;;;;;;;76.97;29.60;;;;;;;-146.27;93.10;43948.56;5083395;28;20063;-74
2024/03/12 00:33:30;;;;;;;81.20;30.52;;;;;;;-146.27;93.40;43916.75;5099092;28;20028;-73
2024/03/12 00:35:58;;;;;;;87.35;30.23;;;;;;;-146.27;93.60;43952.56;5103275;28;20024;-71
2024/03/12 00:38:23;;;;;;;80.65;30.63;;;;;;;-146.27;93.82;43980.41;5102904;28;20024;-71
2024/03/12 00:40:50;;;;;;;87.65;30.77;;;;;;;-146.27;94.35;43990.34;5091176;28;20031;-73
2024/03/12 00:43:17;;;;;;;87.80;30.67;;;;;;;-146.27;94.52;44032.13;5099557;28;20047;-72
2024/03/12 00:45:44;;;;;;;86.45;30.50;;;;;;;-146.27;94.92;44000.28;5089126;28;20024;-73
2024/03/12 00:48:14;;;;;;;98.45;32.03;;;;;;;-146.27;94.14;43948.56;5101598;28;20445;-72
2024/03/12 00:50:40;;;;;;;93.20;31.17;;;;;;;-146.27;93.92;43938.63;5093265;28;20032;-71
2024/03/12 00:53:07;;;;;;;89.85;31.65;;;;;;;-146.27;94.17;43968.47;5090689;28;20111;-71
2024/03/12 00:55:35;;;;;;;84.78;29.02;;;;;;;-146.27;93.58;43948.56;5088658;28;20038;-74
2024/03/12 00:58:01;;;;;;;79.40;29.42;;;;;;;-146.27;93.71;43956.53;5087228;28;20036;-72
2024/03/12 01:00:33;;;;;;;88.90;30.17;;;;;;;-146.27;94.12;43982.38;5099771;28;20058;-73
2024/03/12 01:03:00;;;;;;;94.25;30.33;;;;;;;-146.27;94.05;43988.34;5098408;28;20035;-73
2024/03/12 01:05:30;;;;;;;92.10;30.45;;;;;;;-146.27;94.16;43992.34;5078713;28;20036;-73
2024/03/12 01:08:00;;;;;;;88.55;29.95;;;;;;;-146.27;93.84;43948.56;5095701;28;20035;-72
2024/03/12 01:10:27;;;;;;;82.10;27.63;;;;;;;-146.27;93.81;43956.53;5090205;28;20024;-73
2024/03/12 01:12:54;;;;;;;74.32;26.17;;;;;;;-146.27;93.52;43944.59;5100216;28;20267;-74
2024/03/12 01:15:23;;;;;;;73.45;25.13;;;;;;;-146.27;93.44;43940.63;5091793;28;20499;-73
2024/03/12 01:17:49;;;;;;;69.43;26.05;;;;;;;-146.27;93.41;43960.50;5107711;28;20041;-73
2024/03/12 01:20:19;;;;;;;78.60;26.92;;;;;;;-146.27;93.41;43982.38;5097711;28;20031;-73
2024/03/12 01:22:45;;;;;;;65.95;25.05;;;;;;;-146.27;93.64;43972.44;5083765;28;20020;-72
2024/03/12 01:25:11;;;;;;;72.65;25.48;;;;;;;-146.27;93.20;43968.47;5098181;28;20501;-72
2024/03/12 01:27:36;;;;;;;78.88;26.92;;;;;;;-146.27;93.27;43972.44;5088893;28;20432;-72
2024/03/12 01:30:06;;;;;;;66.72;24.45;;;;;;;-146.27;93.00;43982.38;5105264;28;20058;-72
2024/03/12 01:32:36;;;;;;;83.10;25.33;;;;;;;-146.27;93.38;43992.34;5096709;28;20055;-72
2024/03/12 01:35:08;;;;;;;59.78;24.52;;;;;;;-146.27;93.16;43976.41;5099652;28;20039;-72
2024/03/12 01:37:36;;;;;;;54.13;22.10;;;;;;;-146.27;93.39;43986.38;5101071;28;20015;-72
2024/03/12 01:40:19;;;;;;;58.53;22.75;;;;;;;-146.27;92.74;43984.38;5082571;28;20039;-73
2024/03/12 01:42:50;;;;;;;58.45;22.67;;;;;;;-146.27;92.61;44008.25;5089953;28;20073;-71
2024/03/12 01:45:17;;;;;;;63.10;22.67;;;;;;;-146.27;92.76;43996.31;5091614;28;20154;-72
2024/03/12 01:47:43;;;;;;;69.38;23.15;;;;;;;-146.27;92.64;44004.28;5096440;28;20069;-73
2024/03/12 01:50:09;;;;;;;67.13;23.67;;;;;;;-146.27;92.87;44024.16;5099605;28;20447;-73
2024/03/12 01:52:35;;;;;;;68.53;22.67;;;;;;;-146.27;92.69;44008.25;5095875;28;20053;-71
2024/03/12 01:55:00;;;;;;;70.88;23.52;;;;;;;-146.27;93.03;44046.06;5105604;28;20487;-74
2024/03/12 01:57:25;;;;;;;60.72;23.02;;;;;;;-146.27;93.59;44024.16;5098330;28;20510;-73
2024/03/12 01:59:51;;;;;;;58.35;23.27;;;;;;;-146.27;93.19;43996.31;5103805;28;20027;-72
2024/03/12 02:02:17;;;;;;;69.43;23.10;;;;;;;-146.27;94.16;44036.09;5090866;28;20106;-73
2024/03/12 02:04:42;;;;;;;46.42;21.88;;;;;;;-146.27;94.29;44143.53;5088369;28;20452;-74
2024/03/12 02:07:09;;;;;;;62.97;22.73;;;;;;;-146.27;94.79;44079.88;5103340;28;20020;-71
2024/03/12 02:09:34;;;;;;;66.43;23.10;;;;;;;-146.27;94.72;44056.00;5091571;28;20048;-72
2024/03/12 02:12:00;;;;;;;64.43;23.75;;;;;;;-146.27;94.50;44028.16;5089558;28;20099;-72
2024/03/12 02:14:25;;;;;;;64.60;23.58;;;;;;;-146.27;95.06;44034.13;5070163;28;20066;-71
2024/03/12 02:16:50;;;;;;;64.70;23.55;;;;;;;-146.27;94.88;44044.06;5092971;28;20098;-72
2024/03/12 02:19:18;;;;;;;64.22;25.63;;;;;;;-146.27;95.07;44042.06;5101592;28;20071;-73
2024/03/12 02:21:43;;;;;;;76.75;23.65;;;;;;;-146.27;95.66;44083.84;5089736;28;20027;-72
2024/03/12 02:24:09;;;;;;;70.38;24.13;;;;;;;-146.27;95.70;44063.97;5093807;28;20054;-73
2024/03/12 02:26:34;;;;;;;73.07;26.58;;;;;;;-146.27;95.58;44040.09;5094102;28;20050;-72
2024/03/12 02:29:00;;;;;;;69.63;25.40;;;;;;;-146.27;95.23;44012.22;5087408;28;20570;-72
2024/03/12 02:31:25;;;;;;;81.07;26.48;;;;;;;-146.27;95.02;44020.19;5102376;28;20035;-73
2024/03/12 02:33:52;;;;;;;72.03;24.88;;;;;;;-146.27;95.45;44061.97;5092630;28;20023;-74
2024/03/12 02:36:20;;;;;;;68.82;27.77;;;;;;;-146.27;95.81;43998.31;5092254;28;20028;-76
2024/03/12 02:38:46;;;;;;;69.45;24.00;;;;;;;-146.27;94.66;43976.41;5088603;28;20032;-76
2024/03/12 02:41:11;;;;;;;70.03;25.40;;;;;;;-146.27;94.63;44004.28;5097786;28;20019;-76
2024/03/12 02:43:36;;;;;;;73.63;24.00;;;;;;;-146.27;95.13;44028.16;5093363;28;20446;-76
2024/03/12 02:46:03;;;;;;;69.38;25.10;;;;;;;-146.27;94.86;44028.16;5092245;28;20032;-76
2024/03/12 02:48:29;;;;;;;66.75;23.90;;;;;;;-146.27;94.64;44008.25;5083199;28;20028;-76
2024/03/12 02:50:55;;;;;;;69.70;26.80;;;;;;;-146.27;94.99;44028.16;5088202;28;20023;-75
2024/03/12 02:53:21;;;;;;;75.03;23.33;;;;;;;-146.27;94.96;44010.25;5104737;28;20030;-77
2024/03/12 02:55:46;;;;;;;63.42;24.10;;;;;;;-146.27;94.47;43994.31;5088748;28;20028;-77
2024/03/12 02:58:12;;;;;;;62.95;22.80;;;;;;;-146.27;94.03;43972.44;5095617;28;20028;-77
2024/03/12 03:00:37;;;;;;;71.88;25.15;;;;;;;-146.27;93.78;43992.34;5091462;28;20458;-77
2024/03/12 03:03:03;;;;;;;67.38;22.45;;;;;;;-146.27;93.71;43964.50;5098320;28;20035;-77
2024/03/12 03:05:29;;;;;;;77.18;23.17;;;;;;;-146.27;93.84;44030.13;5087193;28;20028;-77
2024/03/12 03:07:54;;;;;;;67.38;24.60;;;;;;;-146.27;94.22;43956.53;5097658;28;20032;-78
2024/03/12 03:10:20;;;;;;;64.55;21.92;;;;;;;-146.27;93.89;43966.47;5090802;28;20036;-77
2024/03/12 03:12:45;;;;;;;65.10;24.15;;;;;;;-146.27;94.14;44016.22;5095027;28;20054;-77
2024/03/12 03:15:14;;;;;;;71.28;24.17;;;;;;;-146.27;94.37;44006.25;5106705;28;20020;-77
2024/03/12 03:17:45;;;;;;;70.38;21.85;;;;;;;-146.27;93.95;43960.50;5107358;28;20031;-77
2024/03/12 03:20:12;;;;;;;63.53;22.25;;;;;;;-146.27;94.05;43984.38;5088214;28;20032;-77
2024/03/12 03:22:39;;;;;;;68.15;22.35;;;;;;;-146.27;93.99;43980.41;5089511;28;20031;-77
2024/03/12 03:25:05;;;;;;;66.95;21.20;;;;;;;-146.27;93.60;43994.31;5103428;28;20499;-76
2024/03/12 03:27:31;;;;;;;59.83;22.25;;;;;;;-146.27;93.34;43968.47;5095167;28;20032;-78
2024/03/12 03:29:59;;;;;;;76.13;23.60;;;;;;;-146.27;93.11;43980.41;5084667;28;20028;-77
2024/03/12 03:32:24;;;;;;;62.50;20.67;;;;;;;-146.27;93.30;44024.16;5103233;28;20100;-76
2024/03/12 03:34:50;;;;;;;63.15;20.73;;;;;;;-146.27;93.61;44004.28;5097303;28;20028;-77
2024/03/12 03:37:15;;;;;;;60.85;21.13;;;;;;;-146.27;93.54;43996.31;5104618;28;20081;-77
2024/03/12 03:39:40;;;;;;;69.03;21.98;;;;;;;-146.27;93.11;43980.41;5089234;28;20053;-78
2024/03/12 03:42:06;;;;;;;59.85;22.67;;;;;;;-146.27;93.41;44034.13;5095693;28;20488;-76
2024/03/12 03:44:32;;;;;;;51.53;21.63;;;;;;;-146.27;93.22;43992.34;5099697;28;20042;-79
2024/03/12 03:46:57;;;;;;;61.25;21.85;;;;;;;-146.27;93.07;43992.34;5110977;28;20028;-78
2024/03/12 03:49:23;;;;;;;58.40;20.45;;;;;;;-146.27;92.91;43960.50;5103211;28;20039;-77
2024/03/12 03:51:50;;;;;;;62.45;21.35;;;;;;;-146.27;92.71;44008.25;5107520;28;20062;-77
2024/03/12 03:54:16;;;;;;;71.03;20.95;;;;;;;-146.27;92.69;43992.34;5095707;28;20035;-75
2024/03/12 03:56:42;;;;;;;53.38;20.73;;;;;;;-146.27;92.43;43958.53;5110870;28;20027;-76
2024/03/12 03:59:08;;;;;;;58.42;19.67;;;;;;;-146.27;92.69;44022.19;5102952;28;20402;-78
2024/03/12 04:01:34;;;;;;;63.45;20.95;;;;;;;-146.27;92.55;43976.41;5108680;28;20045;-78
2024/03/12 04:04:10;;;;;;;62.45;20.23;;;;;;;-146.27;92.60;43996.31;5107591;28;20535;-78
2024/03/12 04:06:39;;;;;;;64.70;20.60;;;;;;;-146.27;92.73;44004.28;5111390;28;20031;-77
2024/03/12 04:09:04;;;;;;;61.00;21.48;;;;;;;-146.27;92.78;43982.38;5098497;28;20024;-78
2024/03/12 04:11:31;;;;;;;58.83;20.65;;;;;;;-146.27;92.05;43952.56;5101139;28;20040;-77
2024/03/12 04:13:58;;;;;;;45.75;18.83;;;;;;;-146.27;92.12;43952.56;5080483;28;20119;-76
2024/03/12 04:16:24;;;;;;;56.83;20.60;;;;;;;-146.27;91.96;43988.34;5091971;28;20081;-77
2024/03/12 04:18:50;;;;;;;53.50;20.02;;;;;;;-146.27;91.66;43966.47;5099838;28;20411;-78
2024/03/12 04:21:16;;;;;;;47.85;19.77;;;;;;;-146.27;91.85;44000.28;5090445;28;20027;-77
2024/03/12 04:23:45;;;;;;;52.03;18.30;;;;;;;-146.27;92.23;44042.06;5090330;28;20016;-78
2024/03/12 04:26:11;;;;;;;53.78;18.77;;;;;;;-146.27;92.00;43968.47;5090797;28;20458;-78
2024/03/12 04:28:37;;;;;;;47.63;18.38;;;;;;;-146.27;91.66;43976.41;5086406;28;20031;-77
2024/03/12 04:31:06;;;;;;;54.13;19.05;;;;;;;-146.27;91.54;44000.28;5090691;28;20047;-75
2024/03/12 04:33:33;;;;;;;54.40;18.45;;;;;;;-146.27;91.82;44004.28;5093720;28;20027;-77
2024/03/12 04:35:59;;;;;;;51.45;19.05;;;;;;;-146.27;91.70;43984.38;5092101;28;20508;-76
2024/03/12 04:38:25;;;;;;;48.95;18.02;;;;;;;-146.27;91.64;44020.19;5092475;27;20030;-76
2024/03/12 04:40:51;;;;;;;54.17;19.67;;;;;;;-146.27;91.81;44010.25;5089858;28;20111;-77
2024/03/12 04:43:19;;;;;;;46.28;17.63;;;;;;;-146.27;92.03;43976.41;5090088;28;20059;-77
2024/03/12 04:45:45;;;;;;;42.67;17.98;;;;;;;-146.27;91.45;43976.41;5081801;28;20187;-77
2024/03/12 04:48:11;;;;;;;48.35;18.85;;;;;;;-146.27;91.04;44010.25;5090472;28;20233;-78
2024/03/12 04:50:37;;;;;;;53.65;18.17;;;;;;;-146.27;91.18;44002.28;5090622;28;20451;-77
2024/03/12 04:53:03;;;;;;;47.00;17.38;;;;;;;-146.27;91.52;43982.38;5107877;28;20058;-77
2024/03/12 04:55:28;;;;;;;60.00;18.92;;;;;;;-146.27;91.89;44002.28;5108883;28;20515;-78
2024/03/12 04:57:54;;;;;;;51.30;20.00;;;;;;;-146.27;91.91;43998.31;5091216;28;20012;-73
2024/03/12 05:00:19;;;;;;;45.33;17.40;;;;;;;-146.27;91.85;43968.47;5095940;28;20031;-73
2024/03/12 05:02:45;;;;;;;47.75;16.77;;;;;;;-146.27;91.76;44012.22;5102682;28;20858;-72
2024/03/12 05:05:13;;;;;;;49.80;16.40;;;;;;;-146.27;91.63;43992.34;5095004;28;20163;-71
2024/03/12 05:07:39;;;;;;;44.53;16.23;;;;;;;-146.27;91.07;43948.56;5108447;28;20109;-72
2024/03/12 05:10:06;;;;;;;47.53;17.13;;;;;;;-146.27;90.87;44006.25;5097187;28;20032;-71
2024/03/12 05:12:31;;;;;;;46.00;16.15;;;;;;;-146.27;91.11;44000.28;5088844;28;20024;-73
2024/03/12 05:14:56;;;;;;;49.30;17.45;;;;;;;-146.27;91.35;44008.25;5105393;28;20024;-72
2024/03/12 05:17:22;;;;;;;53.38;16.38;;;;;;;-146.27;91.32;43996.31;5101908;28;20024;-73
2024/03/12 05:19:48;;;;;;;58.38;17.17;;;;;;;-146.27;91.17;44030.13;5088421;28;20407;-74
2024/03/12 05:22:14;;;;;;;44.80;16.08;;;;;;;-146.27;91.02;43988.34;5089663;28;20047;-72
2024/03/12 05:24:39;;;;;;;49.38;17.00;;;;;;;-146.27;91.19;44016.22;5094194;28;20526;-71
2024/03/12 05:27:06;;;;;;;49.42;15.70;;;;;;;-146.27;91.63;44030.13;5089103;28;20069;-71
2024/03/12 05:29:42;;;;;;;43.75;16.40;;;;;;;-146.27;92.01;44044.06;5088838;28;20015;-73
2024/03/12 05:32:21;;;;;;;53.75;16.60;;;;;;;-146.27;91.82;44004.28;5098008;28;20088;-73
2024/03/12 05:34:47;;;;;;;41.75;16.05;;;;;;;-146.27;91.59;44028.16;5095414;28;20032;-71
2024/03/12 05:37:28;;;;;;;43.30;16.05;;;;;;;-146.27;91.23;44038.09;5084950;28;20027;-72
2024/03/12 05:48:10;;;;;;;;;;;;;;;-146.27;90.77;44075.91;5092898;28;20116;-74
2024/03/12 05:50:42;;;;;;;34.40;13.90;;;;;;;-146.27;90.69;44052.03;5093699;28;20068;-71
2024/03/12 05:53:10;;;;;;;41.25;14.52;;;;;;;-146.27;90.30;44048.03;5089206;28;20024;-71
2024/03/12 05:55:36;;;;;;;29.13;13.23;;;;;;;-146.27;89.75;44115.69;5100483;28;20102;-72
2024/03/12 05:58:04;;;;;;;36.70;13.43;;;;;;;-146.27;90.15;44091.81;5092491;28;20102;-72
2024/03/12 06:00:30;;;;;;;32.65;13.45;;;;;;;-146.27;89.62;44059.97;5092951;28;20441;-72
2024/03/12 06:02:55;;;;;;;35.70;14.05;;;;;;;-146.27;89.67;44075.91;5086366;28;20028;-73
2024/03/12 06:05:20;;;;;;;38.60;14.25;;;;;;;-146.27;89.46;44071.91;5088678;28;20024;-73
2024/03/12 06:07:48;;;;;;;37.70;14.35;;;;;;;-146.27;89.77;44071.91;5087539;28;20031;-73
2024/03/12 06:10:14;;;;;;;34.88;13.05;;;;;;;-146.27;89.86;44083.84;5080125;28;20038;-73
2024/03/12 06:12:40;;;;;;;40.47;13.02;;;;;;;-146.27;90.05;44127.63;5089738;28;20433;-72
2024/03/12 06:15:06;;;;;;;37.22;13.98;;;;;;;-146.27;90.17;44075.91;5103603;28;20040;-72
2024/03/12 06:17:32;;;;;;;38.75;14.52;;;;;;;-146.27;90.24;44083.84;5105595;28;20047;-73
2024/03/12 06:19:58;;;;;;;38.40;13.65;;;;;;;-146.27;90.05;44028.16;5089498;28;20032;-72
2024/03/12 06:22:23;;;;;;;35.47;13.63;;;;;;;-146.27;89.66;44079.88;5092257;28;20026;-73
2024/03/12 06:24:49;;;;;;;34.63;13.98;;;;;;;-146.27;89.99;44087.84;5090525;28;20049;-74
2024/03/12 06:27:18;;;;;;;39.55;12.98;;;;;;;-146.27;90.32;44089.81;5088167;28;20441;-70
2024/03/12 06:29:45;;;;;;;36.97;11.73;;;;;;;-146.27;90.28;44093.81;5086550;28;20063;-71
2024/03/12 06:32:10;;;;;;;37.17;12.63;;;;;;;-146.27;90.29;44085.84;5086534;28;20036;-73
2024/03/12 06:34:36;;;;;;;37.22;11.93;;;;;;;-146.27;90.29;44101.75;5085181;28;20020;-72
2024/03/12 06:37:02;;;;;;;32.50;11.60;;;;;;;-146.27;90.91;44119.66;5090541;28;20052;-73
2024/03/12 06:39:31;;;;;;;28.27;10.95;;;;;;;-146.27;91.61;44119.66;5095517;28;20015;-72
2024/03/12 06:42:07;;;;;;;31.27;12.55;;;;;;;-146.27;91.78;44109.72;5093475;28;20024;-73
2024/03/12 06:44:35;;;;;;;30.35;11.75;;;;;;;-146.27;90.96;44063.97;5093485;28;20016;-73
2024/03/12 06:47:01;;;;;;;30.52;11.57;;;;;;;-146.27;91.02;44115.69;5086958;28;20119;-75
2024/03/12 06:49:27;;;;;;;27.77;11.85;;;;;;;-146.27;90.99;44097.78;5099077;28;20098;-75
2024/03/12 06:51:53;;;;;;;31.90;12.15;;;;;;;-146.27;91.66;44089.81;5095101;28;20563;-72
2024/03/12 06:54:21;;;;;;;34.47;11.73;;;;;;;-146.27;91.62;44113.69;5093528;28;20028;-72
2024/03/12 06:56:46;;;;;;;36.28;13.18;;;;;;;-146.27;92.01;44109.72;5084238;28;20049;-72
2024/03/12 06:59:15;;;;;;;34.08;12.63;;;;;;;-146.27;92.05;44083.84;5091797;28;20032;-73
2024/03/12 07:01:41;;;;;;;36.95;11.80;;;;;;;-146.27;91.31;44061.97;5092853;28;20016;-73
2024/03/12 07:04:10;;;;;;;29.20;12.27;;;;;;;-146.27;91.82;44063.97;5090445;28;20445;-73
2024/03/12 07:06:37;;;;;;;26.33;12.68;;;;;;;-146.27;91.68;44115.69;5086939;28;20042;-72
2024/03/12 07:09:09;;;;;;;31.98;12.77;;;;;;;-146.27;91.68;44056.00;5090052;28;20100;-71
2024/03/12 07:11:39;;;;;;;31.77;13.75;;;;;;;-146.27;92.05;44111.72;5089890;28;20554;-72
2024/03/12 07:14:23;;;;;;;27.88;12.85;;;;;;;-146.27;91.82;44127.63;5092944;28;20511;-71
2024/03/12 07:16:49;;;;;;;;;;;;;;;-146.27;91.61;44125.63;5089300;28;20084;-73
2024/03/12 07:19:15;;;;;;;32.75;12.73;;;;;;;-146.27;91.76;44163.44;5090270;28;19926;-71
2024/03/12 07:21:41;;;;;;;33.83;13.38;;;;;;;-146.27;91.42;44159.47;5092075;28;20020;-72
2024/03/12 07:24:07;;;;;;;37.45;13.35;;;;;;;-146.27;91.06;44151.50;5113217;28;20611;-72
2024/03/12 07:26:33;;;;;;;30.23;13.45;;;;;;;-146.27;90.67;44161.44;5098917;28;20114;-72
2024/03/12 07:29:02;;;;;;;29.58;13.63;;;;;;;-146.27;91.18;44231.09;5082876;28;20032;-72
2024/03/12 07:31:27;;;;;;;40.00;13.85;;;;;;;-146.27;91.13;44183.34;5084633;28;20023;-72
2024/03/12 07:33:55;;;;;;;32.38;13.90;;;;;;;-146.27;90.92;44243.03;5089395;28;20028;-71
2024/03/12 07:36:21;;;;;;;30.40;14.38;;;;;;;-146.27;90.86;44272.88;5089952;28;20106;-71
2024/03/12 07:38:47;;;;;;;37.88;15.27;;;;;;;-146.27;90.72;44280.81;5091751;28;20012;-72
2024/03/12 07:41:12;;;;;;;48.60;14.77;;;;;;;-146.27;90.21;44302.72;5092259;28;20032;-73
2024/03/12 07:43:38;;;;;;;40.10;14.75;;;;;;;-146.27;89.91;44320.63;5090541;28;20054;-72
2024/03/12 07:46:03;;;;;;;33.92;13.43;;;;;;;-146.27;90.31;44358.44;5089558;28;20394;-72
2024/03/12 07:48:28;;;;;;;37.67;14.32;;;;;;;-146.27;90.07;44390.25;5089150;28;20035;-73
2024/03/12 07:50:58;;;;;;;42.47;14.75;;;;;;;-146.27;90.26;44430.06;5090023;28;20540;-71
2024/03/12 07:53:26;;;;;;;39.08;15.15;;;;;;;-146.27;89.70;44416.13;5090201;28;20516;-72
2024/03/12 07:55:56;;;;;;;28.65;14.10;;;;;;;-146.27;89.23;44410.16;5091334;28;20529;-71
2024/03/12 07:58:22;;;;;;;29.30;13.70;;;;;;;-146.27;89.44;44459.91;5091732;28;20040;-73
2024/03/12 08:00:48;;;;;;;37.45;15.02;;;;;;;-146.27;89.04;44499.69;5091786;28;20039;-72
2024/03/12 08:03:13;;;;;;;37.97;15.55;;;;;;;-146.27;88.87;44473.84;5099641;28;20027;-71
2024/03/12 08:05:39;;;;;;;36.70;15.23;;;;;;;-146.27;88.38;44440.00;5112576;28;20023;-70
2024/03/12 08:08:07;;;;;;;34.90;13.95;;;;;;;-146.27;88.35;44489.75;5093073;28;20114;-70
2024/03/12 08:10:33;;;;;;;30.48;13.23;;;;;;;-146.27;88.26;44503.69;5091956;28;20031;-69
2024/03/12 08:12:58;;;;;;;29.92;13.15;;;;;;;-146.27;88.24;44601.19;5090469;28;20027;-69
2024/03/12 08:15:24;;;;;;;28.35;13.63;;;;;;;-146.27;88.05;44605.16;5091346;28;20020;-69
2024/03/12 08:17:49;;;;;;;29.80;13.88;;;;;;;-146.27;87.86;44589.25;5091683;28;20020;-70
2024/03/12 08:20:17;;;;;;;28.45;14.45;;;;;;;-146.27;87.48;44601.19;5091746;28;20341;-69
2024/03/12 08:22:42;;;;;;;28.67;13.65;;;;;;;-146.27;86.69;44631.03;5089077;28;20024;-69
2024/03/12 08:25:10;;;;;;;38.95;15.00;;;;;;;-146.27;86.86;44692.72;5071440;28;20055;-72
2024/03/12 08:27:36;;;;;;;33.97;13.52;;;;;;;-146.27;86.38;44682.75;5086158;28;20450;-71
2024/03/12 08:30:02;;;;;;;32.38;13.40;;;;;;;-146.27;86.21;44686.75;5091562;28;20023;-70
2024/03/12 08:32:29;;;;;;;31.65;13.65;;;;;;;-146.27;85.64;44708.63;5091116;28;20315;-69
2024/03/12 08:34:54;;;;;;;27.48;13.02;;;;;;;-146.27;85.57;44804.16;5090859;28;20027;-72
2024/03/12 08:37:22;;;;;;;31.88;13.75;;;;;;;-146.27;85.37;44764.34;5090642;28;20027;-74
2024/03/12 08:39:49;;;;;;;31.70;12.63;;;;;;;-146.27;84.66;44752.41;5090809;28;20150;-75
2024/03/12 08:42:15;;;;;;;28.73;13.48;;;;;;;-146.27;84.49;44748.44;5089647;28;20060;-74
2024/03/12 08:44:40;;;;;;;27.13;12.02;;;;;;;-146.27;84.45;44710.63;5087201;28;20059;-75
2024/03/12 08:47:07;;;;;;;29.13;11.57;;;;;;;-146.27;84.63;44824.03;5090665;28;20107;-75
2024/03/12 08:49:33;;;;;;;31.63;12.93;;;;;;;-146.27;84.50;44672.81;5089287;28;20027;-74
2024/03/12 08:51:58;;;;;;;27.73;12.85;;;;;;;-146.27;84.56;44652.91;5091107;28;20040;-75
2024/03/12 08:54:24;;;;;;;27.63;12.60;;;;;;;-146.27;84.08;44686.75;5089129;28;20316;-74
2024/03/12 08:56:49;;;;;;;24.83;12.52;;;;;;;-146.27;84.43;44684.75;5090477;28;20031;-73
2024/03/12 08:59:15;;;;;;;25.00;12.60;;;;;;;-146.27;83.58;44728.53;5087894;28;20035;-74
2024/03/12 09:01:43;;;;;;;26.63;12.80;;;;;;;-146.27;83.36;44748.44;5087419;28;20483;-75
2024/03/12 09:04:08;;;;;;;24.58;11.75;;;;;;;-146.27;82.85;44754.41;5086253;28;21171;-76
2024/03/12 09:06:34;;;;;;;24.80;11.63;;;;;;;-146.27;82.64;44686.75;5088755;28;20020;-75
2024/03/12 09:09:00;;;;;;;26.70;12.55;;;;;;;-146.27;82.27;44670.81;5090567;28;20091;-75
2024/03/12 09:11:26;;;;;;;26.08;12.32;;;;;;;-146.27;82.50;44648.94;5090783;28;20031;-76
2024/03/12 09:13:52;;;;;;;27.65;12.50;;;;;;;-146.27;83.27;44593.22;5089055;28;20024;-75
2024/03/12 09:16:17;;;;;;;25.95;12.50;;;;;;;-146.27;83.05;44637.00;5092780;28;20027;-74
2024/03/12 09:18:43;;;;;;;22.60;12.73;;;;;;;-146.27;83.15;44688.72;5089425;28;20016;-74
2024/03/12 09:21:13;;;;;;;27.38;13.23;;;;;;;-146.27;82.85;44704.66;5089340;28;20024;-75
2024/03/12 09:23:42;;;;;;;24.23;13.48;;;;;;;-146.27;83.28;44740.47;5087590;28;20549;-75
2024/03/12 09:26:08;;;;;;;35.25;13.45;;;;;;;-146.27;83.05;44726.53;5088097;28;20054;-75
2024/03/12 09:28:36;;;;;;;33.17;14.80;;;;;;;-146.27;83.06;44810.13;5088690;28;20488;-75
2024/03/12 09:31:04;;;;;;;29.75;14.82;;;;;;;-146.27;83.12;44772.31;5086725;28;20051;-74
2024/03/12 09:33:29;;;;;;;28.30;13.98;;;;;;;-146.27;82.98;44806.13;5091727;28;20531;-76
2024/03/12 09:35:55;;;;;;;28.90;13.85;;;;;;;-146.27;83.49;44808.13;5089615;28;20111;-75
2024/03/12 09:38:21;;;;;;;30.95;14.68;;;;;;;-146.27;82.97;44770.31;5106243;28;20031;-75
2024/03/12 09:40:50;;;;;;;32.97;15.55;;;;;;;-146.27;82.67;44772.31;5087899;28;20031;-74
2024/03/12 09:43:18;;;;;;;30.92;15.30;;;;;;;-146.27;81.88;44706.63;5098660;28;20039;-74
2024/03/12 09:45:45;;;;;;;30.52;15.75;;;;;;;-146.27;82.01;44692.72;5088912;28;20080;-73
2024/03/12 09:48:14;;;;;;;36.00;16.63;;;;;;;-146.27;82.39;44696.69;5106135;28;20110;-75
2024/03/12 09:50:42;;;;;;;31.15;16.45;;;;;;;-146.27;81.82;44762.34;5094756;28;20027;-74
2024/03/12 09:53:11;;;;;;;30.70;15.45;;;;;;;-146.27;81.65;44732.50;5091317;28;20031;-75
2024/03/12 09:55:39;;;;;;;37.55;17.40;;;;;;;-146.27;80.86;44788.22;5094963;28;20250;-74
2024/03/12 09:58:06;;;;;;;31.23;15.70;;;;;;;-146.27;80.62;44740.47;5096019;28;20100;-74
2024/03/12 10:00:33;;;;;;;31.08;15.52;;;;;;;-146.27;79.80;44758.38;5096801;28;20024;-76
2024/03/12 10:02:59;;;;;;;33.70;16.38;;;;;;;-146.27;79.28;44832.00;5090067;28;20480;-75
2024/03/12 10:05:25;;;;;;;34.45;16.63;;;;;;;-146.27;78.58;44796.19;5087654;28;20031;-75
2024/03/12 10:08:13;;;;;;;30.15;15.10;;;;;;;-146.27;78.80;44824.03;5104277;28;20548;-74
2024/03/12 10:10:44;;;;;;;31.60;15.77;;;;;;;-146.27;77.89;44788.22;5074540;28;20028;-75
2024/03/12 10:13:16;;;;;;;31.73;15.90;;;;;;;-146.27;77.47;44859.88;5096948;28;20407;-75
2024/03/12 10:15:50;;;;;;;32.92;15.65;;;;;;;-146.27;77.55;44863.84;5095222;28;20020;-73
2024/03/12 10:18:17;;;;;;;28.27;14.85;;;;;;;-146.27;77.33;44907.63;5108752;28;20102;-74
2024/03/12 10:20:47;;;;;;;31.58;16.23;;;;;;;-146.27;76.74;44889.72;5099130;28;20019;-75
2024/03/12 10:23:15;;;;;;;30.83;16.27;;;;;;;-146.27;75.70;44891.69;5097525;28;20033;-74
2024/03/12 10:25:42;;;;;;;31.95;15.73;;;;;;;-146.27;75.94;44808.13;5096376;28;20062;-74
2024/03/12 10:28:07;;;;;;;31.48;15.13;;;;;;;-146.27;74.62;44907.63;5093961;28;20059;-74
2024/03/12 10:30:33;;;;;;;34.58;15.82;;;;;;;-146.27;72.21;44935.47;5112909;28;20335;-73
2024/03/12 10:33:12;;;;;;;35.95;14.82;;;;;;;-146.27;72.05;44907.63;5105775;28;20047;-74
2024/03/12 10:35:38;;;;;;;29.20;14.85;;;;;;;-146.27;71.25;44979.25;5095495;28;20028;-73
2024/03/12 10:38:06;;;;;;;26.83;14.50;;;;;;;-146.27;72.78;44985.22;5091631;28;20024;-75
2024/03/12 10:40:32;;;;;;;27.70;14.80;;;;;;;-146.27;73.14;44907.63;5093670;28;20042;-74
2024/03/12 10:42:58;;;;;;;30.40;15.98;;;;;;;-146.27;73.78;45009.13;5100167;28;20507;-74
2024/03/12 10:45:32;;;;;;;30.13;15.30;;;;;;;-146.27;73.47;44971.31;5112079;28;20083;-75
2024/03/12 10:47:59;;;;;;;35.22;17.50;;;;;;;-146.27;73.75;45054.88;5094010;28;20031;-75
2024/03/12 10:50:26;;;;;;;32.97;16.38;;;;;;;-146.27;73.65;44911.59;5094401;28;20024;-74
2024/03/12 10:52:56;;;;;;;31.38;15.93;;;;;;;-146.27;71.64;44947.41;5111850;28;20031;-74
2024/03/12 10:55:22;;;;;;;34.53;16.40;;;;;;;-146.27;71.63;44973.28;5100760;27;20035;-74
2024/03/12 10:57:50;;;;;;;34.50;17.65;;;;;;;-146.27;72.98;44981.25;5094109;28;20031;-69
2024/03/12 11:00:20;;;;;;;38.75;17.75;;;;;;;-146.27;73.31;45036.97;5100238;28;20107;-70
2024/03/12 11:02:50;;;;;;;29.08;15.95;;;;;;;-146.27;72.07;45082.75;5111467;28;20396;-68
2024/03/12 11:05:25;;;;;;;36.15;17.45;;;;;;;-146.27;71.47;44983.25;5081218;28;20081;-70
2024/03/12 11:07:51;;;;;;;34.08;17.70;;;;;;;-146.27;71.13;44889.72;5090591;28;20040;-70
2024/03/12 11:10:18;;;;;;;28.55;16.70;;;;;;;-146.27;69.96;44899.66;5101691;28;20020;-69